sensor_id;sensor_type;location;lat;lon;timestamp;temperature;humidity
4739;DHT22;2383;48.632;10.156;2022-12-20T00:02:25;-0.50;93.80
4739;DHT22;2383;48.632;10.156;2022-12-20T00:06:27;-0.50;93.50
4739;DHT22;2383;48.632;10.156;2022-12-20T00:10:29;-0.60;93.70
4739;DHT22;2383;48.632;10.156;2022-12-20T00:14:31;-1.00;93.80
4739;DHT22;2383;48.632;10.156;2022-12-20T00:18:33;-1.10;94.10
4739;DHT22;2383;48.632;10.156;2022-12-20T00:22:35;-0.90;94.20
4739;DHT22;2383;48.632;10.156;2022-12-20T00:26:37;-0.70;93.90
4739;DHT22;2383;48.632;10.156;2022-12-20T00:30:39;-0.60;93.70
4739;DHT22;2383;48.632;10.156;2022-12-20T00:34:40;-0.60;93.80
4739;DHT22;2383;48.632;10.156;2022-12-20T00:38:47;-0.60;93.70
4739;DHT22;2383;48.632;10.156;2022-12-20T00:42:49;-0.60;93.90
4739;DHT22;2383;48.632;10.156;2022-12-20T00:46:51;-0.50;93.80
4739;DHT22;2383;48.632;10.156;2022-12-20T00:51:01;-0.60;93.80
4739;DHT22;2383;48.632;10.156;2022-12-20T00:55:04;-0.60;94.10
4739;DHT22;2383;48.632;10.156;2022-12-20T00:59:06;-0.60;94.10
4739;DHT22;2383;48.632;10.156;2022-12-20T01:03:08;-0.50;93.80
4739;DHT22;2383;48.632;10.156;2022-12-20T01:07:10;-0.50;93.80
4739;DHT22;2383;48.632;10.156;2022-12-20T01:11:15;-0.60;93.90
4739;DHT22;2383;48.632;10.156;2022-12-20T01:15:18;-0.70;94.10
4739;DHT22;2383;48.632;10.156;2022-12-20T01:19:20;-0.70;94.30
4739;DHT22;2383;48.632;10.156;2022-12-20T01:23:22;-0.60;94.20
4739;DHT22;2383;48.632;10.156;2022-12-20T01:27:24;-0.60;93.90
4739;DHT22;2383;48.632;10.156;2022-12-20T01:31:27;-0.70;94.10
4739;DHT22;2383;48.632;10.156;2022-12-20T01:35:29;-0.50;94.00
4739;DHT22;2383;48.632;10.156;2022-12-20T01:39:31;-0.50;93.80
4739;DHT22;2383;48.632;10.156;2022-12-20T01:47:47;-0.50;93.90
4739;DHT22;2383;48.632;10.156;2022-12-20T01:51:52;-0.40;93.70
4739;DHT22;2383;48.632;10.156;2022-12-20T01:55:58;-0.50;93.90
4739;DHT22;2383;48.632;10.156;2022-12-20T02:00:00;-0.40;93.90
4739;DHT22;2383;48.632;10.156;2022-12-20T02:04:14;-0.60;94.10
4739;DHT22;2383;48.632;10.156;2022-12-20T02:08:18;-0.50;94.30
4739;DHT22;2383;48.632;10.156;2022-12-20T02:12:23;-0.60;94.20
4739;DHT22;2383;48.632;10.156;2022-12-20T02:16:28;-0.40;94.20
4739;DHT22;2383;48.632;10.156;2022-12-20T02:25:33;-0.40;94.10
4739;DHT22;2383;48.632;10.156;2022-12-20T02:34:08;-0.50;94.30
4739;DHT22;2383;48.632;10.156;2022-12-20T02:38:35;-0.60;94.30
4739;DHT22;2383;48.632;10.156;2022-12-20T02:42:37;-0.50;94.30
4739;DHT22;2383;48.632;10.156;2022-12-20T02:46:39;-0.40;94.10
4739;DHT22;2383;48.632;10.156;2022-12-20T02:50:45;-0.50;94.20
4739;DHT22;2383;48.632;10.156;2022-12-20T02:54:48;-0.40;94.20
4739;DHT22;2383;48.632;10.156;2022-12-20T02:59:06;-0.40;94.10
4739;DHT22;2383;48.632;10.156;2022-12-20T03:03:10;-0.40;93.80
4739;DHT22;2383;48.632;10.156;2022-12-20T03:07:24;-0.50;93.90
4739;DHT22;2383;48.632;10.156;2022-12-20T03:11:26;-0.50;93.90
4739;DHT22;2383;48.632;10.156;2022-12-20T03:15:28;-0.50;93.70
4739;DHT22;2383;48.632;10.156;2022-12-20T03:19:31;-0.60;93.70
4739;DHT22;2383;48.632;10.156;2022-12-20T03:23:33;-0.70;93.80
4739;DHT22;2383;48.632;10.156;2022-12-20T03:27:35;-0.70;93.60
4739;DHT22;2383;48.632;10.156;2022-12-20T03:31:37;-0.70;93.30
4739;DHT22;2383;48.632;10.156;2022-12-20T03:35:39;-0.80;93.30
4739;DHT22;2383;48.632;10.156;2022-12-20T03:39:42;-0.90;93.10
4739;DHT22;2383;48.632;10.156;2022-12-20T03:43:44;-0.90;93.00
4739;DHT22;2383;48.632;10.156;2022-12-20T03:47:46;-1.00;93.10
4739;DHT22;2383;48.632;10.156;2022-12-20T03:51:48;-1.30;93.20
4739;DHT22;2383;48.632;10.156;2022-12-20T03:55:50;-1.10;92.80
4739;DHT22;2383;48.632;10.156;2022-12-20T03:59:52;-1.10;92.80
4739;DHT22;2383;48.632;10.156;2022-12-20T04:03:55;-1.30;93.10
4739;DHT22;2383;48.632;10.156;2022-12-20T04:07:57;-1.50;93.10
4739;DHT22;2383;48.632;10.156;2022-12-20T04:12:00;-1.50;93.20
4739;DHT22;2383;48.632;10.156;2022-12-20T04:16:03;-1.40;92.80
4739;DHT22;2383;48.632;10.156;2022-12-20T04:20:09;-1.50;92.70
4739;DHT22;2383;48.632;10.156;2022-12-20T04:24:25;-1.50;92.80
4739;DHT22;2383;48.632;10.156;2022-12-20T04:28:56;-1.60;93.00
4739;DHT22;2383;48.632;10.156;2022-12-20T04:32:58;-1.40;92.60
4739;DHT22;2383;48.632;10.156;2022-12-20T04:37:01;-1.40;92.60
4739;DHT22;2383;48.632;10.156;2022-12-20T04:41:17;-1.40;93.00
4739;DHT22;2383;48.632;10.156;2022-12-20T04:45:30;-1.50;93.10
4739;DHT22;2383;48.632;10.156;2022-12-20T04:49:32;-1.70;93.30
4739;DHT22;2383;48.632;10.156;2022-12-20T04:53:34;-1.60;93.10
4739;DHT22;2383;48.632;10.156;2022-12-20T04:58:04;-1.50;93.10
4739;DHT22;2383;48.632;10.156;2022-12-20T05:02:10;-1.60;93.40
4739;DHT22;2383;48.632;10.156;2022-12-20T05:06:24;-1.50;93.20
4739;DHT22;2383;48.632;10.156;2022-12-20T05:10:26;-1.40;92.90
4739;DHT22;2383;48.632;10.156;2022-12-20T05:14:31;-1.40;93.00
4739;DHT22;2383;48.632;10.156;2022-12-20T05:18:33;-1.40;92.70
4739;DHT22;2383;48.632;10.156;2022-12-20T05:22:40;-1.40;92.60
4739;DHT22;2383;48.632;10.156;2022-12-20T05:27:00;-1.50;92.70
4739;DHT22;2383;48.632;10.156;2022-12-20T05:31:03;-1.50;92.50
4739;DHT22;2383;48.632;10.156;2022-12-20T05:35:08;-1.40;92.50
4739;DHT22;2383;48.632;10.156;2022-12-20T05:39:11;-1.50;92.80
4739;DHT22;2383;48.632;10.156;2022-12-20T05:43:15;-1.50;92.80
4739;DHT22;2383;48.632;10.156;2022-12-20T05:47:19;-1.60;92.70
4739;DHT22;2383;48.632;10.156;2022-12-20T05:51:24;-1.50;92.80
4739;DHT22;2383;48.632;10.156;2022-12-20T05:55:35;-1.60;93.00
4739;DHT22;2383;48.632;10.156;2022-12-20T05:59:38;-1.40;92.70
4739;DHT22;2383;48.632;10.156;2022-12-20T06:03:45;-1.40;92.80
4739;DHT22;2383;48.632;10.156;2022-12-20T06:07:50;-1.40;92.70
4739;DHT22;2383;48.632;10.156;2022-12-20T06:11:53;-1.50;93.00
4739;DHT22;2383;48.632;10.156;2022-12-20T06:15:56;-1.40;92.70
4739;DHT22;2383;48.632;10.156;2022-12-20T06:19:57;-1.40;92.60
4739;DHT22;2383;48.632;10.156;2022-12-20T06:23:59;-1.50;92.90
4739;DHT22;2383;48.632;10.156;2022-12-20T06:28:03;-1.50;92.80
4739;DHT22;2383;48.632;10.156;2022-12-20T06:32:05;-1.50;92.80
4739;DHT22;2383;48.632;10.156;2022-12-20T06:36:07;-1.50;92.40
4739;DHT22;2383;48.632;10.156;2022-12-20T06:40:12;-1.50;92.40
4739;DHT22;2383;48.632;10.156;2022-12-20T06:44:14;-1.50;92.50
4739;DHT22;2383;48.632;10.156;2022-12-20T06:48:16;-1.50;92.40
4739;DHT22;2383;48.632;10.156;2022-12-20T06:52:18;-1.40;92.30
4739;DHT22;2383;48.632;10.156;2022-12-20T06:56:23;-1.40;92.30
4739;DHT22;2383;48.632;10.156;2022-12-20T07:00:25;-1.40;92.40
4739;DHT22;2383;48.632;10.156;2022-12-20T07:04:28;-1.40;92.50
4739;DHT22;2383;48.632;10.156;2022-12-20T07:08:29;-1.40;92.70
4739;DHT22;2383;48.632;10.156;2022-12-20T07:12:31;-1.40;92.90
4739;DHT22;2383;48.632;10.156;2022-12-20T07:16:34;-1.50;92.70
4739;DHT22;2383;48.632;10.156;2022-12-20T07:20:38;-1.40;93.10
4739;DHT22;2383;48.632;10.156;2022-12-20T07:24:40;-1.50;92.90
4739;DHT22;2383;48.632;10.156;2022-12-20T07:28:42;-1.60;92.90
4739;DHT22;2383;48.632;10.156;2022-12-20T07:32:44;-1.90;93.10
4739;DHT22;2383;48.632;10.156;2022-12-20T07:36:47;-1.80;93.40
4739;DHT22;2383;48.632;10.156;2022-12-20T07:40:49;-1.50;93.40
4739;DHT22;2383;48.632;10.156;2022-12-20T07:44:51;-1.30;93.20
4739;DHT22;2383;48.632;10.156;2022-12-20T07:48:52;-1.30;93.30
4739;DHT22;2383;48.632;10.156;2022-12-20T07:52:55;-1.00;93.10
4739;DHT22;2383;48.632;10.156;2022-12-20T07:57:00;-1.10;93.20
4739;DHT22;2383;48.632;10.156;2022-12-20T08:01:04;-1.00;93.20
4739;DHT22;2383;48.632;10.156;2022-12-20T08:05:07;-1.00;93.50
4739;DHT22;2383;48.632;10.156;2022-12-20T08:09:11;-0.90;93.50
4739;DHT22;2383;48.632;10.156;2022-12-20T08:13:14;-0.90;93.50
4739;DHT22;2383;48.632;10.156;2022-12-20T08:17:16;-0.80;93.50
4739;DHT22;2383;48.632;10.156;2022-12-20T08:21:18;-0.70;93.50
4739;DHT22;2383;48.632;10.156;2022-12-20T08:25:19;-0.60;93.50
4739;DHT22;2383;48.632;10.156;2022-12-20T08:29:22;-0.60;93.60
4739;DHT22;2383;48.632;10.156;2022-12-20T08:33:24;-0.50;93.50
4739;DHT22;2383;48.632;10.156;2022-12-20T08:37:25;-0.40;93.70
4739;DHT22;2383;48.632;10.156;2022-12-20T08:41:27;-0.40;93.60
4739;DHT22;2383;48.632;10.156;2022-12-20T08:45:29;-0.40;94.10
4739;DHT22;2383;48.632;10.156;2022-12-20T08:49:31;-0.20;93.80
4739;DHT22;2383;48.632;10.156;2022-12-20T08:53:33;-0.20;93.80
4739;DHT22;2383;48.632;10.156;2022-12-20T08:57:35;-0.20;93.90
4739;DHT22;2383;48.632;10.156;2022-12-20T09:01:37;-0.10;94.10
4739;DHT22;2383;48.632;10.156;2022-12-20T09:05:44;-0.10;94.20
4739;DHT22;2383;48.632;10.156;2022-12-20T09:09:46;0.00;94.10
4739;DHT22;2383;48.632;10.156;2022-12-20T09:13:50;0.10;94.00
4739;DHT22;2383;48.632;10.156;2022-12-20T09:17:54;0.10;93.90
4739;DHT22;2383;48.632;10.156;2022-12-20T09:21:56;0.20;94.00
4739;DHT22;2383;48.632;10.156;2022-12-20T09:26:11;0.40;94.10
4739;DHT22;2383;48.632;10.156;2022-12-20T09:30:14;0.40;93.90
4739;DHT22;2383;48.632;10.156;2022-12-20T09:34:15;0.50;93.90
4739;DHT22;2383;48.632;10.156;2022-12-20T09:38:17;0.60;93.90
4739;DHT22;2383;48.632;10.156;2022-12-20T09:42:21;0.60;93.80
4739;DHT22;2383;48.632;10.156;2022-12-20T09:46:25;0.40;94.20
4739;DHT22;2383;48.632;10.156;2022-12-20T09:50:42;0.30;94.40
4739;DHT22;2383;48.632;10.156;2022-12-20T09:59:00;0.70;94.20
4739;DHT22;2383;48.632;10.156;2022-12-20T10:03:03;0.70;94.20
4739;DHT22;2383;48.632;10.156;2022-12-20T10:11:45;0.80;94.20
4739;DHT22;2383;48.632;10.156;2022-12-20T10:21:08;1.00;94.40
4739;DHT22;2383;48.632;10.156;2022-12-20T10:25:23;1.00;94.20
4739;DHT22;2383;48.632;10.156;2022-12-20T10:29:25;1.20;94.20
4739;DHT22;2383;48.632;10.156;2022-12-20T10:33:27;1.20;94.20
4739;DHT22;2383;48.632;10.156;2022-12-20T10:37:31;1.20;94.30
4739;DHT22;2383;48.632;10.156;2022-12-20T10:45:42;1.40;94.20
4739;DHT22;2383;48.632;10.156;2022-12-20T10:49:44;1.50;94.10
4739;DHT22;2383;48.632;10.156;2022-12-20T10:53:55;1.60;94.10
4739;DHT22;2383;48.632;10.156;2022-12-20T10:58:12;1.60;94.40
4739;DHT22;2383;48.632;10.156;2022-12-20T11:06:43;1.80;94.20
4739;DHT22;2383;48.632;10.156;2022-12-20T11:10:46;1.90;94.30
4739;DHT22;2383;48.632;10.156;2022-12-20T11:14:48;1.60;94.70
4739;DHT22;2383;48.632;10.156;2022-12-20T11:31:54;1.20;95.30
4739;DHT22;2383;48.632;10.156;2022-12-20T11:36:03;1.30;95.20
4739;DHT22;2383;48.632;10.156;2022-12-20T11:49:31;1.80;94.90
4739;DHT22;2383;48.632;10.156;2022-12-20T11:53:42;1.90;94.90
4739;DHT22;2383;48.632;10.156;2022-12-20T11:57:52;2.00;94.80
4739;DHT22;2383;48.632;10.156;2022-12-20T12:02:34;2.00;94.80
4739;DHT22;2383;48.632;10.156;2022-12-20T12:06:50;2.00;95.00
4739;DHT22;2383;48.632;10.156;2022-12-20T12:11:01;2.20;94.90
4739;DHT22;2383;48.632;10.156;2022-12-20T12:19:17;2.30;94.80
4739;DHT22;2383;48.632;10.156;2022-12-20T12:23:40;2.30;94.60
4739;DHT22;2383;48.632;10.156;2022-12-20T12:27:43;2.30;94.80
4739;DHT22;2383;48.632;10.156;2022-12-20T12:32:01;2.40;94.70
4739;DHT22;2383;48.632;10.156;2022-12-20T12:41:17;2.40;94.90
4739;DHT22;2383;48.632;10.156;2022-12-20T12:45:31;2.40;94.90
4739;DHT22;2383;48.632;10.156;2022-12-20T12:49:35;2.30;95.00
4739;DHT22;2383;48.632;10.156;2022-12-20T12:57:57;2.20;95.10
4739;DHT22;2383;48.632;10.156;2022-12-20T13:18:37;2.60;94.90
4739;DHT22;2383;48.632;10.156;2022-12-20T13:22:39;2.50;95.20
4739;DHT22;2383;48.632;10.156;2022-12-20T13:26:48;2.40;95.20
4739;DHT22;2383;48.632;10.156;2022-12-20T13:39:31;2.40;95.10
4739;DHT22;2383;48.632;10.156;2022-12-20T13:43:41;2.50;95.00
4739;DHT22;2383;48.632;10.156;2022-12-20T13:47:48;2.60;95.00
4739;DHT22;2383;48.632;10.156;2022-12-20T14:00:33;2.60;95.00
4739;DHT22;2383;48.632;10.156;2022-12-20T14:04:43;2.70;95.10
4739;DHT22;2383;48.632;10.156;2022-12-20T14:08:49;2.70;95.10
4739;DHT22;2383;48.632;10.156;2022-12-20T14:12:52;2.80;95.20
4739;DHT22;2383;48.632;10.156;2022-12-20T14:16:54;2.80;95.20
4739;DHT22;2383;48.632;10.156;2022-12-20T14:21:02;2.80;95.10
4739;DHT22;2383;48.632;10.156;2022-12-20T14:25:06;2.70;95.20
4739;DHT22;2383;48.632;10.156;2022-12-20T14:29:10;2.70;95.20
4739;DHT22;2383;48.632;10.156;2022-12-20T14:33:28;2.70;95.30
4739;DHT22;2383;48.632;10.156;2022-12-20T14:37:34;2.60;95.40
4739;DHT22;2383;48.632;10.156;2022-12-20T14:41:39;2.60;95.50
4739;DHT22;2383;48.632;10.156;2022-12-20T14:45:44;2.50;95.60
4739;DHT22;2383;48.632;10.156;2022-12-20T14:49:48;2.50;95.70
4739;DHT22;2383;48.632;10.156;2022-12-20T14:53:58;2.50;95.70
4739;DHT22;2383;48.632;10.156;2022-12-20T14:58:00;2.50;95.60
4739;DHT22;2383;48.632;10.156;2022-12-20T15:02:26;2.50;95.70
4739;DHT22;2383;48.632;10.156;2022-12-20T15:06:38;2.50;95.80
4739;DHT22;2383;48.632;10.156;2022-12-20T15:14:57;2.40;95.90
4739;DHT22;2383;48.632;10.156;2022-12-20T15:19:19;2.30;96.00
4739;DHT22;2383;48.632;10.156;2022-12-20T15:23:21;2.50;96.10
4739;DHT22;2383;48.632;10.156;2022-12-20T15:27:23;2.40;96.10
4739;DHT22;2383;48.632;10.156;2022-12-20T15:31:27;2.30;96.00
4739;DHT22;2383;48.632;10.156;2022-12-20T15:35:34;2.20;96.10
4739;DHT22;2383;48.632;10.156;2022-12-20T15:39:36;2.30;96.20
4739;DHT22;2383;48.632;10.156;2022-12-20T15:43:39;2.20;96.30
4739;DHT22;2383;48.632;10.156;2022-12-20T15:47:41;2.20;96.40
4739;DHT22;2383;48.632;10.156;2022-12-20T15:51:44;2.10;96.40
4739;DHT22;2383;48.632;10.156;2022-12-20T15:55:49;2.20;96.50
4739;DHT22;2383;48.632;10.156;2022-12-20T15:59:51;2.20;96.40
4739;DHT22;2383;48.632;10.156;2022-12-20T16:04:17;2.20;96.50
4739;DHT22;2383;48.632;10.156;2022-12-20T16:08:19;2.20;96.50
4739;DHT22;2383;48.632;10.156;2022-12-20T16:12:25;2.20;96.50
4739;DHT22;2383;48.632;10.156;2022-12-20T16:16:32;2.20;96.50
4739;DHT22;2383;48.632;10.156;2022-12-20T16:20:34;2.00;96.60
4739;DHT22;2383;48.632;10.156;2022-12-20T16:24:36;2.10;96.70
4739;DHT22;2383;48.632;10.156;2022-12-20T16:28:38;2.20;96.70
4739;DHT22;2383;48.632;10.156;2022-12-20T16:32:40;2.10;96.60
4739;DHT22;2383;48.632;10.156;2022-12-20T16:36:42;2.10;96.70
4739;DHT22;2383;48.632;10.156;2022-12-20T16:40:45;2.10;97.00
4739;DHT22;2383;48.632;10.156;2022-12-20T16:44:50;2.40;96.80
4739;DHT22;2383;48.632;10.156;2022-12-20T16:48:57;2.20;96.60
4739;DHT22;2383;48.632;10.156;2022-12-20T16:52:59;2.10;96.70
4739;DHT22;2383;48.632;10.156;2022-12-20T16:57:01;2.20;96.70
4739;DHT22;2383;48.632;10.156;2022-12-20T17:01:02;2.10;96.70
4739;DHT22;2383;48.632;10.156;2022-12-20T17:05:05;2.00;96.70
4739;DHT22;2383;48.632;10.156;2022-12-20T17:09:07;2.00;96.70
4739;DHT22;2383;48.632;10.156;2022-12-20T17:13:10;2.00;96.90
4739;DHT22;2383;48.632;10.156;2022-12-20T17:17:12;2.00;96.90
4739;DHT22;2383;48.632;10.156;2022-12-20T17:21:42;2.10;97.00
4739;DHT22;2383;48.632;10.156;2022-12-20T17:26:03;2.10;96.80
4739;DHT22;2383;48.632;10.156;2022-12-20T17:30:05;1.90;97.00
4739;DHT22;2383;48.632;10.156;2022-12-20T17:34:27;1.60;97.10
4739;DHT22;2383;48.632;10.156;2022-12-20T17:38:30;1.70;97.20
4739;DHT22;2383;48.632;10.156;2022-12-20T17:42:32;1.70;97.10
4739;DHT22;2383;48.632;10.156;2022-12-20T17:46:34;1.80;97.00
4739;DHT22;2383;48.632;10.156;2022-12-20T17:50:36;1.90;97.00
4739;DHT22;2383;48.632;10.156;2022-12-20T17:54:39;1.90;96.90
4739;DHT22;2383;48.632;10.156;2022-12-20T17:58:44;2.00;96.90
4739;DHT22;2383;48.632;10.156;2022-12-20T18:02:46;2.00;96.90
4739;DHT22;2383;48.632;10.156;2022-12-20T18:06:48;2.00;96.90
4739;DHT22;2383;48.632;10.156;2022-12-20T18:10:50;1.90;96.90
4739;DHT22;2383;48.632;10.156;2022-12-20T18:14:52;1.90;97.10
4739;DHT22;2383;48.632;10.156;2022-12-20T18:18:55;2.00;97.00
4739;DHT22;2383;48.632;10.156;2022-12-20T18:22:57;2.10;97.00
4739;DHT22;2383;48.632;10.156;2022-12-20T18:26:58;2.00;97.00
4739;DHT22;2383;48.632;10.156;2022-12-20T18:31:02;2.10;97.00
4739;DHT22;2383;48.632;10.156;2022-12-20T18:35:05;2.20;96.90
4739;DHT22;2383;48.632;10.156;2022-12-20T18:39:09;2.10;97.00
4739;DHT22;2383;48.632;10.156;2022-12-20T18:43:12;2.10;97.10
4739;DHT22;2383;48.632;10.156;2022-12-20T18:47:14;2.10;97.10
4739;DHT22;2383;48.632;10.156;2022-12-20T18:51:18;2.10;97.10
4739;DHT22;2383;48.632;10.156;2022-12-20T18:55:20;2.10;97.10
4739;DHT22;2383;48.632;10.156;2022-12-20T18:59:22;2.10;97.10
4739;DHT22;2383;48.632;10.156;2022-12-20T19:03:25;2.20;97.10
4739;DHT22;2383;48.632;10.156;2022-12-20T19:07:27;2.30;97.10
4739;DHT22;2383;48.632;10.156;2022-12-20T19:11:29;2.20;97.00
4739;DHT22;2383;48.632;10.156;2022-12-20T19:15:31;2.30;97.10
4739;DHT22;2383;48.632;10.156;2022-12-20T19:19:33;2.30;97.00
4739;DHT22;2383;48.632;10.156;2022-12-20T19:23:36;2.30;97.00
4739;DHT22;2383;48.632;10.156;2022-12-20T19:27:38;2.30;97.10
4739;DHT22;2383;48.632;10.156;2022-12-20T19:31:41;2.20;97.00
4739;DHT22;2383;48.632;10.156;2022-12-20T19:35:42;2.10;97.20
4739;DHT22;2383;48.632;10.156;2022-12-20T19:40:00;2.20;97.40
4739;DHT22;2383;48.632;10.156;2022-12-20T19:44:02;2.20;97.30
4739;DHT22;2383;48.632;10.156;2022-12-20T19:48:04;2.10;97.30
4739;DHT22;2383;48.632;10.156;2022-12-20T19:52:06;2.00;97.40
4739;DHT22;2383;48.632;10.156;2022-12-20T19:56:09;2.10;97.20
4739;DHT22;2383;48.632;10.156;2022-12-20T20:00:11;2.10;97.20
4739;DHT22;2383;48.632;10.156;2022-12-20T20:04:13;2.20;97.20
4739;DHT22;2383;48.632;10.156;2022-12-20T20:08:15;2.20;97.20
4739;DHT22;2383;48.632;10.156;2022-12-20T20:12:17;2.10;97.20
4739;DHT22;2383;48.632;10.156;2022-12-20T20:16:19;2.10;97.30
4739;DHT22;2383;48.632;10.156;2022-12-20T20:20:23;2.10;97.20
4739;DHT22;2383;48.632;10.156;2022-12-20T20:24:25;2.20;97.10
4739;DHT22;2383;48.632;10.156;2022-12-20T20:28:27;2.20;97.10
4739;DHT22;2383;48.632;10.156;2022-12-20T20:32:35;2.20;97.10
4739;DHT22;2383;48.632;10.156;2022-12-20T20:36:37;2.30;97.00
4739;DHT22;2383;48.632;10.156;2022-12-20T20:40:39;2.20;96.90
4739;DHT22;2383;48.632;10.156;2022-12-20T20:44:41;2.20;97.10
4739;DHT22;2383;48.632;10.156;2022-12-20T20:48:43;2.20;97.20
4739;DHT22;2383;48.632;10.156;2022-12-20T20:52:46;2.20;97.10
4739;DHT22;2383;48.632;10.156;2022-12-20T20:56:48;2.20;97.10
4739;DHT22;2383;48.632;10.156;2022-12-20T21:00:58;2.20;97.10
4739;DHT22;2383;48.632;10.156;2022-12-20T21:05:00;2.20;97.10
4739;DHT22;2383;48.632;10.156;2022-12-20T21:09:22;2.20;97.20
4739;DHT22;2383;48.632;10.156;2022-12-20T21:13:23;2.20;97.20
4739;DHT22;2383;48.632;10.156;2022-12-20T21:17:25;2.20;97.20
4739;DHT22;2383;48.632;10.156;2022-12-20T21:21:27;2.20;97.10
4739;DHT22;2383;48.632;10.156;2022-12-20T21:25:29;2.20;97.20
4739;DHT22;2383;48.632;10.156;2022-12-20T21:29:31;2.30;97.30
4739;DHT22;2383;48.632;10.156;2022-12-20T21:33:33;2.30;97.10
4739;DHT22;2383;48.632;10.156;2022-12-20T21:37:35;2.40;97.30
4739;DHT22;2383;48.632;10.156;2022-12-20T21:41:37;2.30;97.30
4739;DHT22;2383;48.632;10.156;2022-12-20T21:45:39;2.30;97.20
4739;DHT22;2383;48.632;10.156;2022-12-20T21:49:40;2.30;97.20
4739;DHT22;2383;48.632;10.156;2022-12-20T21:53:45;2.30;97.40
4739;DHT22;2383;48.632;10.156;2022-12-20T21:57:47;2.30;97.20
4739;DHT22;2383;48.632;10.156;2022-12-20T22:01:49;2.30;97.30
4739;DHT22;2383;48.632;10.156;2022-12-20T22:05:53;2.30;97.20
4739;DHT22;2383;48.632;10.156;2022-12-20T22:09:55;2.30;97.30
4739;DHT22;2383;48.632;10.156;2022-12-20T22:13:57;2.30;97.30
4739;DHT22;2383;48.632;10.156;2022-12-20T22:17:58;2.30;97.20
4739;DHT22;2383;48.632;10.156;2022-12-20T22:22:00;2.30;97.30
4739;DHT22;2383;48.632;10.156;2022-12-20T22:26:04;2.20;97.20
4739;DHT22;2383;48.632;10.156;2022-12-20T22:30:06;2.30;97.30
4739;DHT22;2383;48.632;10.156;2022-12-20T22:34:08;2.30;97.40
4739;DHT22;2383;48.632;10.156;2022-12-20T22:38:10;2.20;97.40
4739;DHT22;2383;48.632;10.156;2022-12-20T22:42:12;2.20;97.40
4739;DHT22;2383;48.632;10.156;2022-12-20T22:46:16;2.20;97.30
4739;DHT22;2383;48.632;10.156;2022-12-20T22:50:18;2.30;97.30
4739;DHT22;2383;48.632;10.156;2022-12-20T22:54:21;2.30;97.50
4739;DHT22;2383;48.632;10.156;2022-12-20T22:58:23;2.20;97.40
4739;DHT22;2383;48.632;10.156;2022-12-20T23:02:26;2.20;97.30
4739;DHT22;2383;48.632;10.156;2022-12-20T23:06:28;2.20;97.50
4739;DHT22;2383;48.632;10.156;2022-12-20T23:10:30;2.30;97.50
4739;DHT22;2383;48.632;10.156;2022-12-20T23:14:50;2.20;97.40
4739;DHT22;2383;48.632;10.156;2022-12-20T23:19:11;2.20;97.60
4739;DHT22;2383;48.632;10.156;2022-12-20T23:23:13;2.20;97.50
4739;DHT22;2383;48.632;10.156;2022-12-20T23:27:15;2.20;97.60
4739;DHT22;2383;48.632;10.156;2022-12-20T23:31:16;2.10;97.70
4739;DHT22;2383;48.632;10.156;2022-12-20T23:35:19;2.20;97.70
4739;DHT22;2383;48.632;10.156;2022-12-20T23:39:21;2.30;97.60
4739;DHT22;2383;48.632;10.156;2022-12-20T23:43:23;2.30;97.50
4739;DHT22;2383;48.632;10.156;2022-12-20T23:47:25;2.30;97.50
4739;DHT22;2383;48.632;10.156;2022-12-20T23:51:27;2.30;97.50
4739;DHT22;2383;48.632;10.156;2022-12-20T23:55:29;2.40;97.40
4739;DHT22;2383;48.632;10.156;2022-12-20T23:59:32;2.40;97.50
